createdAt,value
2022-10-11T00:01:20.151Z,12.27
2022-10-11T00:04:23.273Z,12.27
2022-10-11T00:07:25.922Z,12.20
2022-10-11T00:10:28.899Z,12.21
2022-10-11T00:13:31.332Z,12.19
2022-10-11T00:16:34.502Z,12.10
2022-10-11T00:19:37.244Z,12.09
2022-10-11T00:22:41.016Z,12.06
2022-10-11T00:25:43.584Z,12.10
2022-10-11T00:28:46.440Z,12.20
2022-10-11T00:31:49.004Z,12.18
2022-10-11T00:34:51.857Z,12.15
2022-10-11T00:37:56.266Z,12.14
2022-10-11T00:41:00.329Z,12.03
2022-10-11T00:44:24.350Z,11.99
2022-10-11T00:47:27.270Z,12.08
2022-10-11T00:50:31.820Z,12.06
2022-10-11T00:53:34.819Z,11.99
2022-10-11T00:56:39.228Z,12.00
2022-10-11T00:59:45.084Z,11.98
2022-10-11T01:02:47.619Z,11.99
2022-10-11T01:05:50.662Z,11.95
2022-10-11T01:08:53.364Z,11.94
2022-10-11T01:11:58.358Z,11.94
2022-10-11T01:15:26.065Z,11.82
2022-10-11T01:18:35.817Z,11.79
2022-10-11T01:21:57.906Z,11.80
2022-10-11T01:25:03.630Z,11.77
2022-10-11T01:28:24.432Z,11.74
2022-10-11T01:31:33.199Z,11.70
2022-10-11T01:34:44.479Z,11.66
2022-10-11T01:37:54.045Z,11.63
2022-10-11T01:41:00.099Z,11.62
2022-10-11T01:44:03.304Z,11.62
2022-10-11T01:47:05.903Z,11.59
2022-10-11T01:50:49.872Z,11.47
2022-10-11T01:54:04.587Z,11.58
2022-10-11T01:57:16.626Z,11.56
2022-10-11T02:00:22.967Z,11.59
2022-10-11T02:03:36.354Z,11.59
2022-10-11T02:06:46.987Z,11.55
2022-10-11T02:10:07.324Z,11.49
2022-10-11T02:13:15.465Z,11.35
2022-10-11T02:16:20.688Z,11.38
2022-10-11T02:19:29.257Z,11.33
2022-10-11T02:22:35.832Z,11.31
2022-10-11T02:25:38.971Z,11.27
2022-10-11T02:28:43.233Z,11.11
2022-10-11T02:31:46.244Z,11.20
2022-10-11T02:34:53.881Z,11.08
2022-10-11T02:37:58.677Z,11.14
2022-10-11T02:41:08.862Z,11.15
2022-10-11T02:44:16.405Z,11.13
2022-10-11T02:47:19.225Z,11.09
2022-10-11T02:50:22.994Z,11.08
2022-10-11T02:53:26.995Z,11.03
2022-10-11T02:56:29.566Z,11.04
2022-10-11T02:59:32.575Z,11.04
2022-10-11T03:02:35.399Z,11.02
2022-10-11T03:05:41.538Z,11.04
2022-10-11T03:08:44.148Z,11.06
2022-10-11T03:11:46.908Z,11.06
2022-10-11T03:14:49.380Z,11.07
2022-10-11T03:17:52.242Z,11.08
2022-10-11T03:20:54.883Z,11.06
2022-10-11T03:23:57.790Z,11.03
2022-10-11T03:27:00.247Z,11.04
2022-10-11T03:30:04.207Z,11.06
2022-10-11T03:33:08.095Z,11.10
2022-10-11T03:36:10.834Z,11.14
2022-10-11T03:39:13.348Z,11.20
2022-10-11T03:42:16.891Z,11.23
2022-10-11T03:45:19.603Z,11.23
2022-10-11T03:48:22.544Z,11.30
2022-10-11T03:51:25.110Z,11.24
2022-10-11T03:54:27.981Z,11.37
2022-10-11T03:57:30.581Z,11.31
2022-10-11T04:00:34.199Z,11.44
2022-10-11T04:03:37.281Z,11.43
2022-10-11T04:06:39.837Z,11.43
2022-10-11T04:09:43.263Z,11.42
2022-10-11T04:12:46.235Z,11.41
2022-10-11T04:15:49.024Z,11.40
2022-10-11T04:18:51.559Z,11.40
2022-10-11T04:21:54.346Z,11.40
2022-10-11T04:24:57.069Z,11.39
2022-10-11T04:27:59.981Z,11.27
2022-10-11T04:31:04.289Z,11.30
2022-10-11T04:34:07.262Z,11.26
2022-10-11T04:37:09.928Z,11.27
2022-10-11T04:40:13.292Z,11.29
2022-10-11T04:43:16.816Z,11.19
2022-10-11T04:46:19.780Z,11.32
2022-10-11T04:49:22.650Z,11.31
2022-10-11T04:52:26.154Z,11.24
2022-10-11T04:55:29.352Z,11.13
2022-10-11T04:58:33.520Z,11.15
2022-10-11T05:01:36.083Z,11.13
2022-10-11T05:04:39.314Z,11.18
2022-10-11T05:07:42.048Z,11.19
2022-10-11T05:10:56.722Z,11.21
2022-10-11T05:13:59.401Z,11.31
2022-10-11T05:17:02.647Z,11.32
2022-10-11T05:20:06.010Z,11.36
2022-10-11T05:23:08.875Z,12.05
2022-10-11T05:26:11.649Z,11.77
2022-10-11T05:29:14.394Z,11.67
2022-10-11T05:32:16.862Z,11.58
2022-10-11T05:35:19.684Z,11.53
2022-10-11T05:38:22.870Z,11.51
2022-10-11T05:41:25.575Z,12.34
2022-10-11T05:44:28.138Z,11.95
2022-10-11T05:47:31.042Z,11.84
2022-10-11T05:50:33.775Z,11.78
2022-10-11T05:53:37.756Z,11.72
2022-10-11T05:56:40.327Z,11.67
2022-10-11T05:59:43.233Z,11.38
2022-10-11T06:02:45.759Z,11.70
2022-10-11T06:05:51.214Z,11.67
2022-10-11T06:08:55.832Z,11.71
2022-10-11T06:11:58.718Z,11.70
2022-10-11T06:15:01.183Z,11.74
2022-10-11T06:18:05.356Z,11.77
2022-10-11T06:21:07.818Z,11.83
2022-10-11T06:24:10.722Z,11.86
2022-10-11T06:27:13.246Z,11.90
2022-10-11T06:30:16.168Z,12.03
2022-10-11T06:33:18.974Z,12.13
2022-10-11T06:36:21.838Z,12.22
2022-10-11T06:39:24.544Z,12.25
2022-10-11T06:42:27.360Z,12.26
2022-10-11T06:45:30.195Z,12.37
2022-10-11T06:48:34.916Z,12.42
2022-10-11T06:51:37.369Z,12.56
2022-10-11T06:54:44.592Z,12.93
2022-10-11T06:57:47.354Z,12.92
2022-10-11T07:00:50.212Z,13.03
2022-10-11T07:03:54.351Z,13.11
2022-10-11T07:06:57.173Z,13.13
2022-10-11T07:09:59.785Z,13.28
2022-10-11T07:13:04.765Z,13.34
2022-10-11T07:16:10.379Z,13.44
2022-10-11T07:19:13.187Z,13.55
2022-10-11T07:22:15.760Z,13.69
2022-10-11T07:25:18.525Z,13.93
2022-10-11T07:28:22.273Z,14.16
2022-10-11T07:31:25.887Z,14.30
2022-10-11T07:34:28.471Z,14.38
2022-10-11T07:37:31.262Z,14.54
2022-10-11T07:40:42.914Z,14.66
2022-10-11T07:43:47.880Z,14.80
2022-10-11T07:46:50.389Z,15.09
2022-10-11T07:49:53.193Z,15.30
2022-10-11T07:52:55.586Z,15.35
2022-10-11T07:56:02.333Z,15.12
2022-10-11T07:59:05.460Z,15.18
2022-10-11T08:02:13.752Z,15.19
2022-10-11T08:05:16.663Z,15.18
2022-10-11T08:08:19.568Z,15.29
2022-10-11T08:11:24.651Z,15.37
2022-10-11T08:14:27.128Z,15.47
2022-10-11T08:17:29.822Z,15.52
2022-10-11T08:20:33.228Z,15.48
2022-10-11T08:23:36.172Z,15.62
2022-10-11T08:26:38.709Z,15.88
2022-10-11T08:29:41.498Z,15.91
2022-10-11T08:32:43.977Z,16.16
2022-10-11T08:35:47.294Z,16.42
2022-10-11T08:38:50.594Z,16.66
2022-10-11T08:41:55.847Z,16.77
2022-10-11T08:45:11.111Z,17.00
2022-10-11T08:48:19.126Z,17.20
2022-10-11T08:51:27.742Z,17.43
2022-10-11T08:54:39.809Z,17.61
2022-10-11T08:57:45.644Z,17.85
2022-10-11T09:00:52.538Z,18.24
2022-10-11T09:03:55.346Z,18.41
2022-10-11T09:07:16.695Z,18.68
2022-10-11T09:10:40.740Z,19.00
2022-10-11T09:13:59.776Z,19.25
2022-10-11T09:17:02.166Z,19.63
2022-10-11T09:20:16.769Z,19.73
2022-10-11T09:23:56.670Z,19.63
2022-10-11T09:27:13.157Z,19.83
2022-10-11T09:30:18.403Z,20.16
2022-10-11T09:33:32.352Z,20.26
2022-10-11T09:36:42.042Z,20.53
2022-10-11T09:39:51.406Z,20.78
2022-10-11T09:42:53.862Z,20.50
2022-10-11T09:45:56.818Z,20.88
2022-10-11T09:49:02.428Z,20.81
2022-10-11T09:52:09.809Z,20.31
2022-10-11T09:55:41.548Z,20.10
2022-10-11T09:58:44.384Z,19.85
2022-10-11T10:01:47.041Z,19.54
2022-10-11T10:05:14.814Z,19.46
2022-10-11T10:08:23.428Z,19.51
2022-10-11T10:11:28.723Z,19.30
2022-10-11T10:14:31.197Z,19.21
2022-10-11T10:17:34.623Z,19.73
2022-10-11T10:20:38.008Z,20.49
2022-10-11T10:23:42.263Z,21.32
2022-10-11T10:27:04.683Z,21.84
2022-10-11T10:30:07.397Z,22.28
2022-10-11T10:33:11.631Z,22.44
2022-10-11T10:36:19.260Z,22.31
2022-10-11T10:39:32.507Z,22.58
2022-10-11T10:42:35.304Z,22.83
2022-10-11T10:45:50.067Z,22.96
2022-10-11T10:49:34.514Z,23.27
2022-10-11T10:52:53.081Z,22.98
2022-10-11T10:56:17.531Z,23.15
2022-10-11T10:59:37.147Z,23.49
2022-10-11T11:03:02.053Z,23.73
2022-10-11T11:06:08.196Z,23.88
2022-10-11T11:10:02.789Z,23.99
2022-10-11T11:13:17.102Z,23.52
2022-10-11T11:16:24.146Z,23.03
2022-10-11T11:19:53.949Z,23.01
2022-10-11T11:23:10.324Z,22.94
2022-10-11T11:26:24.174Z,23.55
2022-10-11T11:29:43.621Z,24.26
2022-10-11T11:33:12.141Z,24.85
2022-10-11T11:36:20.841Z,24.28
2022-10-11T11:39:50.561Z,23.53
2022-10-11T11:43:00.815Z,23.38
2022-10-11T11:46:09.638Z,23.10
2022-10-11T11:49:28.720Z,22.72
2022-10-11T11:52:39.097Z,22.57
2022-10-11T11:55:49.291Z,22.61
2022-10-11T11:58:54.956Z,22.78
2022-10-11T12:02:18.927Z,23.11
2022-10-11T12:05:25.298Z,23.14
2022-10-11T12:08:32.128Z,23.08
2022-10-11T12:11:37.983Z,23.31
2022-10-11T12:14:41.179Z,22.90
2022-10-11T12:17:53.148Z,23.26
2022-10-11T12:21:08.286Z,23.74
2022-10-11T12:24:20.481Z,23.70
2022-10-11T12:27:37.487Z,23.96
2022-10-11T12:30:47.064Z,23.17
2022-10-11T12:33:53.947Z,23.25
2022-10-11T12:36:56.735Z,23.63
2022-10-11T12:39:59.789Z,23.45
2022-10-11T12:43:24.487Z,23.82
2022-10-11T12:46:31.111Z,23.79
2022-10-11T12:49:42.962Z,23.70
2022-10-11T12:53:03.547Z,23.61
2022-10-11T12:56:15.437Z,23.07
2022-10-11T12:59:22.451Z,23.14
2022-10-11T13:02:52.073Z,23.35
2022-10-11T13:06:00.438Z,23.04
2022-10-11T13:09:21.125Z,22.97
2022-10-11T13:12:24.244Z,22.69
2022-10-11T13:15:28.731Z,22.63
2022-10-11T13:18:31.387Z,22.34
2022-10-11T13:21:36.776Z,22.55
2022-10-11T13:24:40.601Z,22.14
2022-10-11T13:27:43.671Z,22.11
2022-10-11T13:30:57.363Z,21.92
2022-10-11T13:34:00.159Z,21.85
2022-10-11T13:37:03.002Z,21.55
2022-10-11T13:40:06.729Z,21.38
2022-10-11T13:43:09.505Z,21.35
2022-10-11T13:46:21.162Z,21.22
2022-10-11T13:49:37.082Z,21.00
2022-10-11T13:52:58.122Z,20.92
2022-10-11T13:56:04.361Z,20.84
2022-10-11T13:59:07.362Z,20.58
2022-10-11T14:02:21.683Z,20.46
2022-10-11T14:05:40.341Z,20.47
2022-10-11T14:08:48.344Z,20.44
2022-10-11T14:11:51.210Z,20.17
2022-10-11T14:14:53.762Z,20.06
2022-10-11T14:17:57.397Z,20.01
2022-10-11T14:21:27.932Z,19.91
2022-10-11T14:24:30.727Z,19.82
2022-10-11T14:27:33.342Z,19.69
2022-10-11T14:30:36.251Z,19.59
2022-10-11T14:33:38.876Z,19.52
2022-10-11T14:36:41.651Z,19.40
2022-10-11T14:39:46.103Z,19.35
2022-10-11T14:42:49.310Z,19.25
2022-10-11T14:45:51.894Z,19.20
2022-10-11T14:48:56.596Z,19.18
2022-10-11T14:51:59.546Z,19.22
2022-10-11T14:55:02.332Z,19.14
2022-10-11T14:58:06.429Z,19.11
2022-10-11T15:01:14.086Z,19.07
2022-10-11T15:04:17.798Z,18.92
2022-10-11T15:07:20.549Z,18.75
2022-10-11T15:10:29.667Z,18.58
2022-10-11T15:13:33.113Z,18.37
2022-10-11T15:16:36.242Z,18.16
2022-10-11T15:19:39.755Z,18.09
2022-10-11T15:22:43.706Z,17.89
2022-10-11T15:25:46.545Z,17.65
2022-10-11T15:28:50.030Z,17.59
2022-10-11T15:31:52.966Z,17.38
2022-10-11T15:34:55.510Z,17.31
2022-10-11T15:37:59.506Z,17.26
2022-10-11T15:41:02.056Z,17.15
2022-10-11T15:44:05.088Z,17.08
2022-10-11T15:47:07.550Z,17.04
2022-10-11T15:50:18.983Z,16.96
2022-10-11T15:53:24.828Z,16.89
2022-10-11T15:56:32.913Z,16.78
2022-10-11T15:59:37.285Z,16.65
2022-10-11T16:02:40.158Z,16.56
2022-10-11T16:05:43.609Z,16.49
2022-10-11T16:08:46.163Z,16.42
2022-10-11T16:11:49.031Z,16.32
2022-10-11T16:14:51.644Z,16.26
2022-10-11T16:17:54.699Z,16.18
2022-10-11T16:20:57.719Z,16.13
2022-10-11T16:24:00.574Z,16.03
2022-10-11T16:27:03.208Z,16.01
2022-10-11T16:30:06.472Z,15.94
2022-10-11T16:33:09.603Z,16.26
2022-10-11T16:36:35.995Z,15.97
2022-10-11T16:39:39.583Z,15.97
2022-10-11T16:42:42.399Z,15.88
2022-10-11T16:45:44.918Z,15.76
2022-10-11T16:48:48.122Z,15.75
2022-10-11T16:51:52.099Z,15.73
2022-10-11T16:54:55.177Z,15.68
2022-10-11T16:57:57.639Z,15.65
2022-10-11T17:01:03.653Z,15.57
2022-10-11T17:04:06.203Z,15.53
2022-10-11T17:07:12.459Z,15.58
2022-10-11T17:10:15.063Z,15.63
2022-10-11T17:13:17.960Z,15.77
2022-10-11T17:16:21.768Z,15.86
2022-10-11T17:19:24.613Z,15.91
2022-10-11T17:22:29.560Z,15.89
2022-10-11T17:25:32.577Z,15.85
2022-10-11T17:28:36.077Z,15.83
2022-10-11T17:31:39.163Z,15.81
2022-10-11T17:34:41.837Z,15.76
2022-10-11T17:37:44.827Z,15.74
2022-10-11T17:40:47.909Z,15.64
2022-10-11T17:43:50.927Z,15.67
2022-10-11T17:46:53.435Z,15.67
2022-10-11T17:49:56.402Z,15.65
2022-10-11T17:52:59.471Z,15.61
2022-10-11T17:56:07.813Z,15.58
2022-10-11T17:59:17.003Z,15.54
2022-10-11T18:02:19.996Z,15.45
2022-10-11T18:05:22.818Z,15.39
2022-10-11T18:08:25.556Z,15.34
2022-10-11T18:11:29.151Z,15.18
2022-10-11T18:14:31.729Z,15.19
2022-10-11T18:17:34.545Z,15.11
2022-10-11T18:20:37.539Z,15.07
2022-10-11T18:23:41.047Z,14.98
2022-10-11T18:26:47.035Z,14.89
2022-10-11T18:29:49.875Z,14.74
2022-10-11T18:32:52.470Z,14.78
2022-10-11T18:36:04.791Z,14.78
2022-10-11T18:39:13.967Z,14.51
2022-10-11T18:42:17.980Z,14.72
2022-10-11T18:45:21.071Z,14.66
2022-10-11T18:48:23.996Z,14.62
2022-10-11T18:51:29.415Z,14.51
2022-10-11T18:54:32.166Z,14.50
2022-10-11T18:57:34.968Z,14.52
2022-10-11T19:00:41.054Z,14.46
2022-10-11T19:03:45.800Z,14.46
2022-10-11T19:06:49.039Z,14.44
2022-10-11T19:09:51.782Z,14.36
2022-10-11T19:12:54.739Z,14.45
2022-10-11T19:16:06.551Z,14.47
2022-10-11T19:19:11.819Z,14.47
2022-10-11T19:22:14.459Z,14.44
2022-10-11T19:25:17.419Z,14.40
2022-10-11T19:28:21.430Z,14.35
2022-10-11T19:31:24.860Z,14.30
2022-10-11T19:34:28.894Z,14.27
2022-10-11T19:37:31.969Z,14.25
2022-10-11T19:40:38.044Z,14.25
2022-10-11T19:43:41.050Z,14.18
2022-10-11T19:46:51.481Z,14.10
2022-10-11T19:49:55.444Z,13.88
2022-10-11T19:52:57.990Z,13.93
2022-10-11T19:56:09.391Z,13.88
2022-10-11T19:59:13.139Z,13.85
2022-10-11T20:02:16.667Z,13.80
2022-10-11T20:05:19.495Z,13.80
2022-10-11T20:08:23.314Z,13.76
2022-10-11T20:11:26.214Z,13.84
2022-10-11T20:14:28.744Z,13.72
2022-10-11T20:17:50.134Z,14.00
2022-10-11T20:21:01.267Z,14.10
2022-10-11T20:24:04.663Z,14.15
2022-10-11T20:27:07.202Z,14.19
2022-10-11T20:30:10.917Z,14.35
2022-10-11T20:33:13.626Z,14.30
2022-10-11T20:36:18.673Z,14.45
2022-10-11T20:39:21.878Z,14.47
2022-10-11T20:42:28.963Z,14.53
2022-10-11T20:45:32.237Z,14.54
2022-10-11T20:48:36.093Z,14.53
2022-10-11T20:51:41.501Z,14.55
2022-10-11T20:54:44.471Z,14.57
2022-10-11T20:57:46.922Z,14.56
2022-10-11T21:00:49.826Z,14.54
2022-10-11T21:03:52.462Z,14.51
2022-10-11T21:06:55.301Z,14.49
2022-10-11T21:09:58.159Z,14.43
2022-10-11T21:13:01.439Z,14.45
2022-10-11T21:16:11.212Z,14.39
2022-10-11T21:19:15.366Z,14.34
2022-10-11T21:22:17.848Z,14.31
2022-10-11T21:25:20.944Z,14.28
2022-10-11T21:28:23.672Z,14.23
2022-10-11T21:31:29.730Z,14.19
2022-10-11T21:34:36.156Z,14.17
2022-10-11T21:37:39.031Z,14.03
2022-10-11T21:40:41.748Z,14.09
2022-10-11T21:43:45.248Z,14.08
2022-10-11T21:47:06.099Z,14.14
2022-10-11T21:50:10.249Z,14.15
2022-10-11T21:53:12.750Z,14.14
2022-10-11T21:56:15.905Z,14.18
2022-10-11T21:59:18.387Z,14.09
2022-10-11T22:02:21.220Z,14.19
2022-10-11T22:05:24.463Z,14.22
2022-10-11T22:08:26.952Z,14.29
2022-10-11T22:11:29.816Z,14.32
2022-10-11T22:14:32.494Z,14.37
2022-10-11T22:17:35.321Z,14.42
2022-10-11T22:20:37.899Z,14.40
2022-10-11T22:23:43.012Z,14.33
2022-10-11T22:26:45.551Z,14.34
2022-10-11T22:29:48.472Z,14.33
2022-10-11T22:32:51.771Z,14.35
2022-10-11T22:35:56.012Z,14.33
2022-10-11T22:38:59.673Z,14.27
2022-10-11T22:42:02.592Z,14.23
2022-10-11T22:45:05.483Z,14.21
2022-10-11T22:48:08.699Z,14.20
2022-10-11T22:51:11.318Z,14.19
2022-10-11T22:54:14.103Z,14.20
2022-10-11T22:57:16.639Z,14.17
2022-10-11T23:00:21.315Z,14.03
2022-10-11T23:03:24.122Z,14.11
2022-10-11T23:06:27.118Z,14.10
2022-10-11T23:09:31.045Z,14.09
2022-10-11T23:12:34.026Z,14.07
2022-10-11T23:15:40.480Z,14.02
2022-10-11T23:18:43.510Z,13.99
2022-10-11T23:21:46.651Z,13.93
2022-10-11T23:24:49.474Z,13.89
2022-10-11T23:27:52.050Z,13.86
2022-10-11T23:30:54.834Z,13.74
2022-10-11T23:33:57.624Z,13.68
2022-10-11T23:37:01.607Z,13.64
2022-10-11T23:40:04.761Z,13.58
2022-10-11T23:43:07.600Z,13.55
2022-10-11T23:46:10.138Z,13.58
2022-10-11T23:49:13.356Z,13.59
2022-10-11T23:52:16.114Z,13.49
2022-10-11T23:55:19.171Z,13.58
2022-10-11T23:58:21.829Z,13.56
